Tiempo atmosférico en la estación meteorológica de Ciudad Real, Ciudad Real (628 m.)



Fecha
DESCASC
Temp. máxima en grados centígrados (hora)
DESCASC
Temp. mínima en grados centígrados (hora)
DESCASC
Temp. media en grados centígrados
DESCASC
Racha de viento máxima en m/sg (hora)
DESCASC
Velocidad máxima media en intervalos de 10 minutos(hora)
DESCASC
Precipitaciones diarias en mm
DESCASC
Precipitaciones de 00:00 a 06:00 en mm
DESCASC
Precipitaciones de 06:00 a 12:00 en mm
DESCASC
Precipitaciones de 12:00 a 18:00 en mm
DESCASC
Precipitaciones de 18:00 a 24:00 en mm
DESCASC
23-05-2018 28.5 (14:00) 13.6 (07:20) 21.1 -- (--) -- (--) -- 0 -- 0 0
22-05-2018 26.7 (18:40) 11.2 (07:00) 19 -- (--) -- (--) 0 0 0 0 0
21-05-2018 24.1 (18:20) 13.2 (06:50) 18.7 8.06 (19:00) 4.17 (20:00) 7.4 0 0 0 7.4
20-05-2018 23.6 (16:40) 12.5 (00:00) 18.1 10 (12:00) 5.56 (11:10) 6.6 0 4 2.6 0
19-05-2018 26.7 (17:50) 11.8 (00:00) 19.3 9.44 (19:30) 5 (21:00) 0.4 0 0 0 0.4
18-05-2018 21.4 (18:50) 12 (00:00) 16.7 8.89 (19:40) 4.72 (19:30) 3.6 0 0.6 3 0
17-05-2018 27.2 (18:00) 9.3 (00:00) 18.3 8.61 (12:10) 4.17 (11:50) 0 0 0 0 0
16-05-2018 26.9 (15:30) 10.6 (00:00) 18.8 10.56 (16:20) 4.72 (18:40) 0 0 0 0 0
15-05-2018 24.5 (17:50) 8.2 (00:00) 16.3 8.06 (15:50) 4.17 (15:50) 0 0 0 0 0
14-05-2018 21.5 (16:30) 7.3 (00:00) 14.4 6.94 (19:40) 3.06 (13:40) 0 0 0 0 0
13-05-2018 20.5 (18:30) 7.8 (00:00) 14.2 8.61 (17:00) 3.33 (18:00) 0 0 0 0 0
12-05-2018 20.7 (16:50) 11.9 (00:00) 16.3 12.5 (18:10) 5.56 (18:20) 0 0 0 0 0
11-05-2018 -- (--) -- (--) -- -- (--) -- (--) -- 0 -- -- 0
10-05-2018 25.5 (17:20) 14.1 (00:00) 19.8 5.83 (01:10) 3.33 (09:10) 0 0 0 0 0
09-05-2018 24.8 (17:20) 13.2 (00:00) 19 9.44 (20:30) 5 (16:00) 0 0 0 0 0
08-05-2018 26 (14:50) 13.6 (00:00) 19.8 9.72 (19:50) 5 (19:50) 5.4 0 0 2 3.4
07-05-2018 26 (17:10) 11.5 (00:00) 18.8 7.5 (16:00) 4.44 (15:10) 1 0 0 0 1
06-05-2018 25 (17:30) 11.9 (00:00) 18.4 15.56 (20:20) 6.67 (20:10) 1.2 0.4 0 0 0.8
05-05-2018 25.9 (16:40) 9.6 (00:00) 17.8 5.83 (17:30) 3.06 (17:30) 0 0 0 0 0
04-05-2018 21.3 (17:20) 5.9 (00:00) 13.6 7.22 (10:20) 3.61 (16:00) 0 0 0 0 0
03-05-2018 20.6 (15:20) 8.5 (00:00) 14.6 10 (17:40) 5.56 (17:40) 1 0 0 1 0
02-05-2018 17.8 (17:40) 5.2 (00:00) 11.5 8.61 (13:00) 4.17 (15:00) 0 0 0 0 0
01-05-2018 14.7 (17:00) 2.8 (07:20) 8.7 7.78 (11:10) 5 (11:10) 2.2 0 1.2 1 0
30-04-2018 13.5 (15:50) 5.4 (00:00) 9.5 10 (17:40) 5.56 (17:40) 1.6 0 0 1.6 0
29-04-2018 14.2 (16:40) 6.4 (00:00) 10.3 14.44 (17:30) 6.67 (17:30) 3.6 1.6 0.4 0.4 1.2
28-04-2018 18.9 (16:30) 10.9 (00:00) 14.9 10.56 (17:20) 5.28 (15:30) 0 0 0 0 0

Gráficas

Temp. máximas Temp. mínimas Temp. medias Precipitaciones Rachas de viento máximas Velocidades máximas media en intervalos de 10 minutos

Datos horarios

Fecha y hora oficial Temperatura (ºC) Velocidad del viento (km/h) Dirección del viento Racha (km/h) Dirección de racha Precipitación (mm) Presión (hPa) Tendencia (hPa) Humedad (%)
2018-05-27 23:00:00 15.2 5 Sur 9 Sudoeste 0 942.9 0.6 86
2018-05-27 22:00:00 15.4 0 Calma 8 Nordeste 0 942.5 -0.3 90
2018-05-27 21:00:00 15.8 4 Nordeste 17 Noroeste 0 942.7 -0.2 88
2018-05-27 20:00:00 16 6 Sudeste 10 Sudoeste 0.2 942.3 -0.5 88
2018-05-27 19:00:00 16.3 5 Sur 17 Oeste 3 942.8 1.1 82
2018-05-27 18:00:00 18.6 8 Sudeste 13 Sudeste 0 942.9 0.9 71
2018-05-27 17:00:00 18.5 4 Sur 25 Sudoeste 0 942.8 1.2 69
2018-05-27 16:00:00 19 9 Sudeste 31 Sur 0 941.7 -0.6 69
2018-05-27 15:00:00 20.9 13 Sudoeste 25 Sur 0.2 942 -0.5 67
2018-05-27 14:00:00 22.1 8 Oeste 17 Oeste 0 941.6 -1 51
2018-05-27 13:00:00 21.8 6 Noroeste 13 Noroeste 0 942.3 -0.4 52
2018-05-27 12:00:00 21.1 4 Noroeste 14 Noroeste 0 942.5 0.3 57
2018-05-27 11:00:00 19.2 4 Sudeste 9 Este 0 942.6 0.7 70
2018-05-27 10:00:00 17.3 4 Sudeste 8 Sudeste 0 942.7 1.1 80
2018-05-27 09:00:00 15.6 5 Este 9 Este 0 942.2 1 87
2018-05-27 08:00:00 14.9 3 Nordeste 5 Nordeste 0 941.9 0.7 84
2018-05-27 07:00:00 14.7 2 Nordeste 5 Noroeste 0 941.6 0.6 82
2018-05-27 06:00:00 15.6 0 Calma 7 Sudoeste 0 941.2 0.1 77
2018-05-27 05:00:00 15.6 0 Calma 4 Este 0 941.2 -0.3 78
2018-05-27 04:00:00 16.2 2 Nordeste 9 Noroeste 0 941 -0.8 73
2018-05-27 03:00:00 16.6 0 Calma 4 Noroeste 0 941.1 -0.9 75
2018-05-27 02:00:00 17.2 3 Oeste 6 Oeste 0 941.5 0 64
2018-05-27 01:00:00 17 3 Oeste 10 Nordeste 0 941.8 1.4 66
2018-05-27 00:00:00 17.6 3 Sudeste 5 Sur 0 942 1.5 66
2018-05-26 23:00:00 19 3 Noroeste 10 Oeste 0 941.5 1.3 56
2018-05-26 22:00:00 20.2 6 Noroeste 14 Oeste 0 940.4 0.4 50
2018-05-26 21:00:00 21.4 9 Noroeste 16 Noroeste 0 940.5 0.1 44
2018-05-26 20:00:00 23 6 Noroeste 17 Oeste 0 940.2 -0.3 40
2018-05-26 19:00:00 24.8 7 Noroeste 17 Noroeste 0 940 -0.6 35
2018-05-26 18:00:00 24.7 6 Sudoeste 17 Sudoeste 0 940.4 -0.8 37
2018-05-26 17:00:00 23.4 5 Oeste 16 Sur 0 940.5 -0.9 39
2018-05-26 16:00:00 23.1 5 Sudeste 12 Sudoeste 0 940.6 -0.6 40
2018-05-26 15:00:00 23.3 5 Sudeste 15 Sur 0 941.2 -0.3 40
2018-05-26 14:00:00 22.6 10 Sudeste 17 Sudeste 0 941.4 -0.3 45
2018-05-26 13:00:00 20.9 3 Sur 12 Sudoeste 0 941.2 -0.8 49
2018-05-26 12:00:00 20.7 7 Sudeste 13 Noroeste 0 941.5 -0.2 49
2018-05-26 11:00:00 20.2 6 Este 13 Este 0 941.7 0 51
2018-05-26 10:00:00 18.3 4 Sudeste 9 Sudeste 0 942 0.7 62
2018-05-26 09:00:00 15.4 2 Sudoeste 6 Nordeste 0 941.7 0.7 74
2018-05-26 08:00:00 13.4 2 Este 5 Nordeste 0 941.7 0.8 87
2018-05-26 07:00:00 13 5 Noroeste 8 Noroeste 0 941.3 0.3 87
2018-05-26 06:00:00 13.2 2 Nordeste 6 Sudoeste 0 941 -0.3 86
2018-05-26 05:00:00 13.2 4 Sur 9 Sudoeste 0 940.9 -1.1 85
2018-05-26 04:00:00 13.4 4 Sur 7 Sur 0 941 -1.1 83
2018-05-26 03:00:00 14 5 Sudeste 7 Sudeste 0 941.3 -0.7 82
2018-05-26 02:00:00 14.1 4 Sudoeste 9 Este 0 942 0.4 82
2018-05-26 01:00:00 14 4 Noroeste 10 Noroeste 0 942.1 1 81
2018-05-26 00:00:00 14.5 7 Oeste 18 Noroeste 0 942 1.4 76
2018-05-25 23:00:00 15.5 6 Noroeste 15 Noroeste 0 941.6 1.5 70
2018-05-25 22:00:00 16.5 5 Noroeste 13 Noroeste 0 941.1 1.5 65
2018-05-25 21:00:00 17.9 8 Noroeste 21 Oeste 0 940.6 0.8 61
2018-05-25 20:00:00 19.1 10 Oeste 32 Sudoeste 0 940.1 -0.1 56
2018-05-25 19:00:00 22.1 14 Sudoeste 26 Sudoeste 0 939.6 -0.8 42
2018-05-25 18:00:00 21.7 7 Oeste 18 Sudoeste 0 939.8 -1 45
2018-05-25 17:00:00 19.5 7 Sudoeste 22 Sur 0.2 940.2 -1.1 59
2018-05-25 16:00:00 21.7 6 Sudeste 17 Sudeste 0 940.4 -1.2 51
2018-05-25 15:00:00 19.6 6 Sudeste 17 Sudeste 0 940.8 -0.9 58
2018-05-25 14:00:00 19.6 9 Este 17 Este 0 941.3 -0.5 61
2018-05-25 13:00:00 17.8 6 Sudeste 13 Este 0 941.6 -0.1 70
2018-05-25 12:00:00 16.2 4 Sudeste 9 Sudoeste 0 941.7 0.4 83
2018-05-25 11:00:00 14.1 6 Sudoeste 9 Sudoeste 0.2 941.8 0.8 91
2018-05-25 10:00:00 13.8 3 Sudoeste 12 Sur 2.6 941.7 1.1 93
2018-05-25 09:00:00 13.6 2 Sudeste 9 Este 1.2 941.3 0.5 94
2018-05-25 08:00:00 13.1 5 Sudeste 9 Nordeste 3.6 941 0.2 95
2018-05-25 07:00:00 13.1 7 Nordeste 12 Norte 1.8 940.6 0.5 94
2018-05-25 06:00:00 13.5 5 Norte 19 Norte 7.4 940.8 -0.4 93
2018-05-25 05:00:00 14.4 8 Noroeste 23 Sudoeste 13.2 940.8 -1.1 94
2018-05-25 04:00:00 14.8 4 Este 7 Nordeste 0 940.1 -2.2 94
2018-05-25 03:00:00 14.7 3 Sur 8 Noroeste 1.8 941.2 -1 92
2018-05-25 02:00:00 15 8 Este 20 Oeste 6.6 941.9 0.3 92
2018-05-25 01:00:00 15.8 9 Oeste 19 Oeste 1.2 942.3 1.6 88
2018-05-25 00:00:00 16.4 4 Noroeste 25 Oeste 2.6 942.2 2.8 83
2018-05-24 23:00:00 18.1 9 Noroeste 28 Noroeste 0 941.6 3.4 72
2018-05-24 22:00:00 19 7 Oeste 34 Noroeste 0 940.7 3 66
2018-05-24 21:00:00 20.9 16 Oeste 37 Oeste 0 939.4 1.4 65
2018-05-24 20:00:00 24.3 13 Oeste 36 Sudoeste 0 938.2 0.1 52
2018-05-24 19:00:00 27.4 10 Sudoeste 31 Sur 0 937.7 -0.1 31
2018-05-24 18:00:00 27.8 14 Sur 33 Sur 0 938 -0.9 30
2018-05-24 17:00:00 28.5 17 Sur 44 Sur 0 938.1 -1.8 29
2018-05-24 16:00:00 29.8 11 Sudoeste 24 Sur 0 937.8 -3 29
2018-05-24 15:00:00 28.3 16 Nordeste 39 Nordeste 0 938.9 -2.5 35
2018-05-24 14:00:00 26.3 14 Nordeste 34 Este 0 939.9 -1.9 35
2018-05-24 13:00:00 23.9 12 Este 30 Este 0 940.8 -1.7 38
2018-05-24 12:00:00 20.7 16 Nordeste 30 Nordeste 0 941.4 -0.6 48
2018-05-24 11:00:00 16.8 8 Norte 19 Norte 0 941.8 -0.3 62
2018-05-24 10:00:00 16.4 7 Este 26 Nordeste 0 942.5 0.3 58
2018-05-24 09:00:00 16.6 15 Nordeste 26 Nordeste 0 942 0 56
2018-05-24 08:00:00 15.1 9 Este 23 Este 0 942.1 -0.2 65
2018-05-24 07:00:00 14.7 5 Este 12 Nordeste 0 942.2 -0.4 79
2018-05-24 06:00:00 15.6 4 Norte 10 Nordeste 0 942 -1 77
2018-05-24 05:00:00 16.2 7 Norte 10 Noroeste 0 942.3 -0.8 76
2018-05-24 04:00:00 16.7 4 Nordeste 17 Nordeste 0 942.6 -0.5 76
2018-05-24 03:00:00 17.8 4 Nordeste 8 Este 0 943 -0.9 69
2018-05-24 02:00:00 18.4 3 Nordeste 7 Sudeste 0 943.1 -0.4 66
2018-05-24 01:00:00 19.2 5 Noroeste 10 Noroeste 0 943.1 -0.1 62
2018-05-24 00:00:00 20 5 Noroeste 8 Noroeste 0 943.9 0.6 60
2018-05-23 23:00:00 20.7 5 Sur 11 Sur 0 943.5 0.5 54
2018-05-23 22:00:00 21.6 7 Sudeste 12 Sudeste 0 943.2 0.2 50
2018-05-23 21:00:00 22.8 9 Sudeste 12 Sudeste 0 943.3 -0.1 43
2018-05-23 20:00:00 23.5 8 Sur 14 Sudeste 0 943 -0.1 45
2018-05-23 19:00:00 23.9 5 Sudoeste 28 Sudeste 0 943 0.1 40
2018-05-23 18:00:00 24.5 11 Sur 30 Sur 0 943.4 0.1 39
2018-05-23 17:00:00 26.3 13 Sur 28 Sur 0 943.1 -0.5 36
2018-05-23 16:00:00 27.3 9 Sur 22 Sudoeste 0 942.9 -1.2 31
2018-05-23 15:00:00 27.7 6 Sur 18 Oeste 0 943.3 -1 31
2018-05-23 14:00:00 28.5 6 Sudoeste 18 Sudoeste 0 943.6 -0.8 33
2018-05-23 13:00:00 26.9 8 Sudeste 14 Sudeste 0 944.1 -0.2 37
2018-05-23 12:00:00 25.6 4 Este 10 Este 0 944.3 0 46
2018-05-23 11:00:00 21.7 -- -- -- -- -- 944.4 0.5 57
2018-05-23 10:00:00 18.7 -- -- -- -- 0 944.3 1 69
2018-05-23 09:00:00 16.2 -- -- -- -- -- 944.3 1.2 79
2018-05-23 08:00:00 14.1 -- -- -- -- 0 943.9 0.8 88
2018-05-23 07:00:00 13.8 -- -- -- -- 0 943.3 0 87
2018-05-23 06:00:00 14 -- -- -- -- 0 943.1 -0.3 84
2018-05-23 05:00:00 14.6 -- -- -- -- 0 943.1 -0.5 83
2018-05-23 04:00:00 15.7 -- -- -- -- 0 943.3 -0.3 78
2018-05-23 03:00:00 16.2 -- -- -- -- 0 943.4 -0.1 74
2018-05-23 02:00:00 17.1 -- -- -- -- 0 943.6 0.3 70
2018-05-23 01:00:00 18.1 -- -- -- -- 0 943.6 1.1 67
2018-05-23 00:00:00 19.4 -- -- -- -- 0 943.5 1.6 59
2018-05-22 23:00:00 20.5 -- -- -- -- 0 943.3 1.6 55
2018-05-22 22:00:00 21.7 -- -- -- -- 0 942.5 0.9 49
2018-05-22 21:00:00 23.3 6 Sudoeste 12 Sudoeste 0 941.9 0.3 38
2018-05-22 20:00:00 25 5 Sur 17 Oeste 0 941.7 -0.2 35
2018-05-22 19:00:00 26.4 7 Sur 14 Sudoeste 0 941.6 -0.6 30
2018-05-22 18:00:00 26.5 8 Sudeste 15 Sur 0 941.6 -1 31
2018-05-22 17:00:00 26.3 5 Sur 14 Sudoeste 0 941.9 -1 31
2018-05-22 16:00:00 25.8 6 Noroeste 17 Sur 0 942.2 -0.7 36
2018-05-22 15:00:00 24.7 8 Sur 18 Sudoeste 0 942.6 -0.6 39
2018-05-22 14:00:00 22.8 6 Este 13 Sudoeste 0 942.9 -0.2 46
2018-05-22 13:00:00 21.5 5 Norte 13 Norte 0 942.9 -0.1 52
2018-05-22 12:00:00 20.9 3 Sudeste 14 Sudoeste 0 943.2 0.4 57
2018-05-22 11:00:00 18.5 5 Oeste 15 Oeste 0 943.1 0.6 72
2018-05-22 10:00:00 16.5 6 Oeste 11 Sudoeste 0 943 1.1 89
2018-05-22 09:00:00 13.7 0 Calma 6 Nordeste 0 942.8 1.3 100
2018-05-22 08:00:00 11.5 0 Calma 3 Este 0 942.5 1.1 99
2018-05-22 07:00:00 11.3 0 Calma 3 Sur 0 941.9 0.5 99
2018-05-22 06:00:00 11.8 0 Calma 4 Sur 0 941.5 -0.1 99
2018-05-22 05:00:00 12.4 0 Calma 4 Sudeste 0 941.4 -0.4 98
2018-05-22 04:00:00 13 0 Calma 4 Sur 0 941.4 -0.4 98
2018-05-22 03:00:00 13.6 0 Calma 8 Sudeste 0 941.6 0.1 97
2018-05-22 02:00:00 13.5 2 Este 7 Sudeste 0 941.8 0.3 97
2018-05-22 01:00:00 13.5 4 Sudeste 15 Noroeste 0 941.8 0.2 97
2018-05-22 00:00:00 13.8 10 Oeste 21 Noroeste 0 941.5 0.3 95
2018-05-21 23:00:00 13.9 7 Oeste 18 Oeste 1.2 941.5 0.9 96
2018-05-21 22:00:00 14 6 Sur 23 Sur 0.6 941.6 2.3 94
2018-05-21 21:00:00 14.6 9 Sudeste 26 Sur 1.4 941.2 2.7 92
2018-05-21 20:00:00 15.4 15 Este 29 Sudeste 4.2 940.6 1.9 88
2018-05-21 19:00:00 21.3 13 Sudeste 29 Sur 0 939.3 0.2 50
2018-05-21 18:00:00 23.2 8 Sudoeste 18 Sudoeste 0 938.5 -0.8 38
2018-05-21 17:00:00 21.8 6 Noroeste 26 Sudoeste 0 938.7 -1.3 44
2018-05-21 16:00:00 22.4 13 Noroeste 22 Oeste 0 939.1 -1.7 43
2018-05-21 15:00:00 22.7 7 Sudoeste 18 Sur 0 939.3 -1.7 42
2018-05-21 14:00:00 22.2 3 Sur 13 Sur 0 940 -1 45
2018-05-21 13:00:00 20.7 11 Sudeste 19 Sur 0 940.8 -0.1 51
2018-05-21 12:00:00 20.5 7 Sudoeste 14 Sudoeste 0 941 0.3 52
2018-05-21 11:00:00 19 3 Este 7 Nordeste 0 941 0.4 59
2018-05-21 10:00:00 16.7 2 Nordeste 7 Noroeste 0 940.9 0.7 68
2018-05-21 09:00:00 14.2 0 Calma 4 Norte 0 940.7 0.5 83
2018-05-21 08:00:00 13.4 0 Calma 5 Sur 0 940.6 0.4 86
2018-05-21 07:00:00 13.2 0 Calma 5 Este 0 940.2 -0.2 84
2018-05-21 06:00:00 13.4 2 Norte 8 Noroeste 0 940.2 -0.5 85
2018-05-21 05:00:00 13.9 4 Noroeste 8 Noroeste 0 940.2 -0.9 76
2018-05-21 04:00:00 14 3 Noroeste 6 Noroeste 0 940.4 -0.7 77
2018-05-21 03:00:00 14.1 3 Sudeste 8 Sur 0 940.7 -0.8 78
2018-05-21 02:00:00 14.2 5 Sur 14 Sudoeste 0 941.1 -0.5 76
2018-05-21 01:00:00 14.3 5 Sur 13 Sudoeste 0 941.1 0.5 75
2018-05-21 00:00:00 14.7 5 Sudoeste 10 Sudoeste 0 941.5 0.8 72
2018-05-20 23:00:00 15.3 4 Nordeste 12 Sudoeste 0 941.6 1.9 77
2018-05-20 22:00:00 16.2 8 Oeste 18 Oeste 0 940.6 0.8 67
2018-05-20 21:00:00 16.8 10 Sudoeste 23 Oeste 0 940.7 1.2 66
2018-05-20 20:00:00 18 8 Noroeste 19 Oeste 0 939.7 0.1 55
2018-05-20 19:00:00 18.2 13 Este 36 Este 0 939.8 -0.4 62
2018-05-20 18:00:00 19.9 9 Noroeste 15 Este 2.6 939.5 -1.6 48
2018-05-20 17:00:00 23 4 Norte 15 Noroeste 0 939.6 -2.4 40
2018-05-20 16:00:00 22.7 7 Noroeste 18 Noroeste 0 940.2 -2.6 41
2018-05-20 15:00:00 20.4 8 Noroeste 15 Norte 0 941.1 -2 54
2018-05-20 14:00:00 17.4 4 Norte 7 Norte 0 942 -1.4 72
2018-05-20 13:00:00 15.9 3 Sudoeste 17 Este 0 942.8 -1 74
2018-05-20 12:00:00 14.4 12 Nordeste 36 Nordeste 1 943.1 -0.5 69
2018-05-20 11:00:00 13.3 15 Sudeste 23 Sudeste 2.6 943.4 0.4 89
2018-05-20 10:00:00 13.4 8 Nordeste 25 Nordeste 0 943.8 1.2 85
2018-05-20 09:00:00 12.6 14 Nordeste 31 Este 0.2 943.6 1.2 85
2018-05-20 08:00:00 13.5 5 Nordeste 21 Este 0.2 943 0.8 83
2018-05-20 07:00:00 13.6 10 Este 19 Este 0 942.6 0.4 78
2018-05-20 06:00:00 14.3 8 Nordeste 15 Nordeste 0 942.4 -0.2 73
2018-05-20 05:00:00 15.4 5 Nordeste 15 Nordeste 0 942.2 -1 69
2018-05-20 04:00:00 15.7 5 Norte 10 Norte 0 942.2 -1.3 70
2018-05-20 03:00:00 15.7 3 Norte 9 Norte 0 942.6 -0.8 74
2018-05-20 02:00:00 15.8 3 Norte 8 Noroeste 0 943.2 0 77
2018-05-20 01:00:00 16.1 3 Oeste 11 Oeste 0 943.5 0.8 73
2018-05-20 00:00:00 16.3 4 Noroeste 14 Oeste 0 943.4 1 74
2018-05-19 23:00:00 16.8 6 Noroeste 18 Noroeste 0 943.2 1 70
2018-05-19 22:00:00 16.9 8 Noroeste 31 Oeste 0 942.7 1.1 72
2018-05-19 21:00:00 17.3 18 Oeste 34 Noroeste 0.4 942.4 0.8 71
2018-05-19 20:00:00 20.4 15 Oeste 34 Oeste 0 942.2 0.5 52
2018-05-19 19:00:00 24.7 4 Nordeste 23 Nordeste 0 941.6 -0.8 26
2018-05-19 18:00:00 26.1 10 Nordeste 26 Nordeste 0 941.6 -1.5 26
2018-05-19 17:00:00 26.2 12 Este 30 Este 0 941.7 -2.2 28
2018-05-19 16:00:00 25.6 7 Nordeste 24 Nordeste 0 942.4 -2 30
2018-05-19 15:00:00 25 13 Este 24 Este 0 943.1 -1.6 33
2018-05-19 14:00:00 23.4 7 Este 22 Nordeste 0 943.9 -1 38
2018-05-19 13:00:00 23.2 7 Este 19 Este 0 944.4 -0.4 42
2018-05-19 12:00:00 21.5 5 Nordeste 17 Nordeste 0 944.7 0.1 48
2018-05-19 11:00:00 19.3 9 Este 16 Este 0 944.9 0.5 59
2018-05-19 10:00:00 16.1 8 Nordeste 14 Nordeste 0 944.8 0.8 74
2018-05-19 09:00:00 13.3 9 Este 14 Nordeste 0 944.6 1 84
2018-05-19 08:00:00 11.8 4 Sudeste 12 Nordeste 0 944.4 0.7 89
2018-05-19 07:00:00 12.1 5 Nordeste 8 Nordeste 0 944 0.3 87
2018-05-19 06:00:00 12.9 3 Norte 9 Nordeste 0 943.6 -0.4 85
2018-05-19 05:00:00 13.6 3 Norte 8 Nordeste 0 943.7 -0.6 82
2018-05-19 04:00:00 14 3 Nordeste 8 Noroeste 0 943.7 -0.8 80
2018-05-19 03:00:00 14.4 3 Noroeste 9 Noroeste 0 944 -0.3 74
2018-05-19 02:00:00 14.6 0 Calma 10 Sudeste 0 944.3 0.5 74
2018-05-19 01:00:00 14.8 6 Este 15 Este 0 944.5 1.2 71
2018-05-19 00:00:00 14.8 8 Este 17 Este 0 944.3 1.3 69
2018-05-18 23:00:00 15.8 3 Nordeste 6 Nordeste 0 943.8 1 70
2018-05-18 22:00:00 16.9 5 Noroeste 11 Sudoeste 0 943.3 0.6 64
2018-05-18 21:00:00 17.7 5 Sudoeste 24 Sur 0 943 0.5 59
2018-05-18 20:00:00 18.7 13 Sur 32 Sur 0 942.8 0.1 55
2018-05-18 19:00:00 21.2 5 Sur 9 Sur 0 942.7 -0.5 44
2018-05-18 18:00:00 20.2 6 Noroeste 10 Oeste 0 942.5 -1.2 45
2018-05-18 17:00:00 18.5 4 Norte 14 Nordeste 0 942.7 -1.8 61
2018-05-18 16:00:00 17 4 Nordeste 8 Nordeste 0 943.2 -1.7 74
2018-05-18 15:00:00 14.9 3 Oeste 17 Sudeste 0.2 943.7 -0.8 79
2018-05-18 14:00:00 14.1 12 Este 18 Sudeste 1.8 944.5 0.4 87
2018-05-18 13:00:00 15.2 8 Sudoeste 17 Oeste 1 944.9 1.2 78
2018-05-18 12:00:00 16 6 Sur 17 Sudoeste 0.6 944.5 1.3 78
2018-05-18 11:00:00 16.6 7 Oeste 14 Oeste 0 944.1 1.2 68
2018-05-18 10:00:00 15.1 4 Norte 8 Noroeste 0 943.7 1.3 70
2018-05-18 09:00:00 13 2 Norte 5 Norte 0 943.2 1.3 73
2018-05-18 08:00:00 12 0 Calma 8 Norte 0 942.9 1 71
2018-05-18 07:00:00 12.3 2 Nordeste 7 Este 0 942.4 0.7 69
2018-05-18 06:00:00 13.5 0 Calma 4 Noroeste 0 941.9 0.2 65
2018-05-18 05:00:00 14 3 Noroeste 11 Noroeste 0 941.9 0.1 61
2018-05-18 04:00:00 14.5 2 Nordeste 7 Este 0 941.7 -0.4 60
2018-05-18 03:00:00 15.4 4 Este 11 Sur 0 941.7 -0.3 56
2018-05-18 02:00:00 16.8 6 Sudeste 13 Sur 0 941.8 0.2 50
2018-05-18 01:00:00 17.9 9 Sudeste 18 Sur 0 942.1 1.3 44
2018-05-18 00:00:00 18.9 12 Sudeste 19 Sudeste 0 942 1.7 44
2018-05-17 23:00:00 19.4 11 Este 20 Sudeste 0 941.6 1.7 41
2018-05-17 22:00:00 21.2 10 Sudeste 22 Este 0 940.8 0.9 34
2018-05-17 21:00:00 23.3 8 Este 21 Este 0 940.3 0.4 25
2018-05-17 20:00:00 24.8 8 Este 24 Sudeste 0 939.9 -0.2 21
2018-05-17 19:00:00 25.7 9 Este 25 Este 0 939.9 -0.7 20
2018-05-17 18:00:00 27.2 11 Nordeste 26 Nordeste 0 939.9 -1.1 19
2018-05-17 17:00:00 27 11 Este 27 Este 0 940.1 -1.5 19
2018-05-17 16:00:00 26.3 12 Este 28 Nordeste 0 940.6 -1.4 21
2018-05-17 15:00:00 25.7 13 Este 31 Nordeste 0 941 -1.4 23
2018-05-17 14:00:00 24.7 11 Este 28 Este 0 941.6 -0.8 24
2018-05-17 13:00:00 23.2 10 Este 31 Este 0 942 -0.7 30
2018-05-17 12:00:00 21.4 15 Este 27 Este 0 942.4 -0.3 33
2018-05-17 11:00:00 19.3 10 Este 20 Nordeste 0 942.4 0.1 41
2018-05-17 10:00:00 16.6 10 Este 15 Este 0 942.7 0.7 49
2018-05-17 09:00:00 12.9 8 Nordeste 17 Este 0 942.7 0.6 59
2018-05-17 08:00:00 10 9 Este 16 Este 0 942.3 0.1 66
2018-05-17 07:00:00 9.4 3 Este 15 Nordeste 0 942 -0.1 66
2018-05-17 06:00:00 9.9 8 Nordeste 14 Nordeste 0 942.1 0.3 65
2018-05-17 05:00:00 11 8 Nordeste 19 Nordeste 0 942.2 0.3 61
2018-05-17 04:00:00 12 10 Este 21 Nordeste 0 942.1 0.4 56
2018-05-17 03:00:00 12.1 9 Nordeste 14 Nordeste 0 941.8 0.2 57
2018-05-17 02:00:00 13.5 6 Nordeste 14 Nordeste 0 941.9 0.6 51
2018-05-17 01:00:00 16.3 7 Este 14 Este 0 941.7 1.1 40
2018-05-17 00:00:00 17.6 9 Este 17 Este 0 941.6 1.3 38
2018-05-16 23:00:00 18.8 11 Este 20 Este 0 941.3 1.3 38
2018-05-16 22:00:00 20.3 9 Nordeste 19 Nordeste 0 940.6 0.4 33
2018-05-16 21:00:00 22.7 9 Nordeste 24 Nordeste 0 940.3 0 27
2018-05-16 20:00:00 24.5 12 Nordeste 30 Nordeste 0 940 -0.4 23
2018-05-16 19:00:00 26.2 12 Nordeste 35 Nordeste 0 940.2 -0.8 23
2018-05-16 18:00:00 26.4 13 Nordeste 30 Nordeste 0 940.3 -1.1 24
2018-05-16 17:00:00 26.1 15 Este 38 Nordeste 0 940.4 -1.6 25
2018-05-16 16:00:00 25.8 15 Nordeste 35 Nordeste 0 941 -1.7 26
2018-05-16 15:00:00 25.6 17 Este 33 Este 0 941.4 -1.6 27
2018-05-16 14:00:00 24.9 10 Este 29 Este 0 942 -1.1 28
2018-05-16 13:00:00 24.1 12 Nordeste 26 Este 0 942.7 -0.5 29
2018-05-16 12:00:00 21.8 9 Este 21 Este 0 943 -0.2 39
2018-05-16 11:00:00 19 12 Nordeste 24 Este 0 943.1 -0.1 48
2018-05-16 10:00:00 16.4 14 Nordeste 23 Nordeste 0 943.2 0.4 57
2018-05-16 09:00:00 14.3 8 Nordeste 15 Nordeste 0 943.2 0.6 60
2018-05-16 08:00:00 11.7 7 Este 12 Este 0 943.2 0.5 68
2018-05-16 07:00:00 10.8 4 Nordeste 12 Nordeste 0 942.8 -0.1 70
2018-05-16 06:00:00 12.1 6 Este 10 Este 0 942.6 -0.3 65
2018-05-16 05:00:00 12.5 5 Nordeste 9 Norte 0 942.7 -0.6 63
2018-05-16 04:00:00 13.4 3 Nordeste 8 Norte 0 942.9 -0.6 60
2018-05-16 03:00:00 14.4 3 Norte 8 Norte 0 942.9 -0.6 58
2018-05-16 02:00:00 15.2 3 Norte 7 Norte 0 943.3 0 54
2018-05-16 01:00:00 15.5 2 Noroeste 4 Noroeste 0 943.5 0.7 55
2018-05-16 00:00:00 16.9 4 Noroeste 7 Noroeste 0 943.5 0.9 49
2018-05-15 23:00:00 17.9 2 Noroeste 6 Norte 0 943.3 0.9 42
2018-05-15 22:00:00 19.6 3 Norte 11 Norte 0 942.8 0.2 39
2018-05-15 21:00:00 21.4 5 Norte 15 Norte 0 942.6 -0.2 33
2018-05-15 20:00:00 22.6 9 Noroeste 20 Norte 0 942.4 -0.9 28
2018-05-15 19:00:00 24 10 Noroeste 26 Norte 0 942.6 -1.4 26
2018-05-15 18:00:00 24.4 8 Norte 26 Nordeste 0 942.8 -1.7 25
2018-05-15 17:00:00 24.1 8 Nordeste 26 Noroeste 0 943.3 -1.7 27
2018-05-15 16:00:00 23.1 9 Norte 29 Noroeste 0 944 -1.8 27
2018-05-15 15:00:00 22.6 8 Norte 24 Norte 0 944.5 -1.7 25
2018-05-15 14:00:00 21.7 7 Norte 22 Norte 0 945 -1.5 27
2018-05-15 13:00:00 20.1 9 Nordeste 22 Este 0 945.8 -0.8 29
2018-05-15 12:00:00 18.4 9 Nordeste 22 Nordeste 0 946.2 -0.4 33
2018-05-15 11:00:00 16.6 9 Este 20 Este 0 946.5 0 39
2018-05-15 10:00:00 14.7 8 Nordeste 18 Este 0 946.6 0.4 44
2018-05-15 09:00:00 12.2 5 Este 11 Este 0 946.6 0.6 48
2018-05-15 08:00:00 9 3 Norte 11 Nordeste 0 946.5 0.5 51
2018-05-15 07:00:00 8.4 6 Este 13 Nordeste 0 946.2 0.2 54
2018-05-15 06:00:00 8.9 7 Nordeste 15 Nordeste 0 946 -0.1 57
2018-05-15 05:00:00 9.2 4 Nordeste 9 Nordeste 0 946 0 60
2018-05-15 04:00:00 10.2 3 Nordeste 10 Norte 0 946 0 59
2018-05-15 03:00:00 11.1 4 Nordeste 9 Nordeste 0 946.1 0.1 59
2018-05-15 02:00:00 12.3 3 Norte 8 Noroeste 0 946 0.1 61
2018-05-15 01:00:00 13.1 3 Noroeste 8 Noroeste 0 946 0.6 58
2018-05-15 00:00:00 13.7 3 Norte 10 Norte 0 946 1 53
2018-05-14 23:00:00 14.4 4 Norte 12 Nordeste 0 945.9 1 50
2018-05-14 22:00:00 16 5 Norte 17 Nordeste 0 945.4 0.5 45
2018-05-14 21:00:00 17.7 6 Norte 23 Nordeste 0 945 0 38
2018-05-14 20:00:00 18.9 7 Norte 25 Norte 0 944.9 -0.3 36
2018-05-14 19:00:00 20 9 Norte 21 Norte 0 944.9 -0.5 33
2018-05-14 18:00:00 20.9 6 Norte 23 Norte 0 945 -0.7 33
2018-05-14 17:00:00 21 8 Norte 23 Norte 0 945.2 -1 34
2018-05-14 16:00:00 20.5 8 Norte 17 Norte 0 945.4 -1.3 35
2018-05-14 15:00:00 20.7 5 Norte 20 Norte 0 945.7 -1.1 34
2018-05-14 14:00:00 20.3 7 Norte 20 Noroeste 0 946.2 -0.7 35
2018-05-14 13:00:00 19.2 6 Nordeste 17 Nordeste 0 946.7 -0.5 38
2018-05-14 12:00:00 18.4 4 Oeste 14 Nordeste 0 946.8 -0.6 38
2018-05-14 11:00:00 17.1 3 Nordeste 15 Este 0 946.9 -0.6 41
2018-05-14 10:00:00 14.9 7 Nordeste 17 Noroeste 0 947.2 0.1 47
2018-05-14 09:00:00 11.4 4 Nordeste 9 Norte 0 947.4 0.4 61
2018-05-14 08:00:00 8.2 0 Calma 5 Norte 0 947.5 0.3 69
2018-05-14 07:00:00 7.5 0 Calma 2 Nordeste 0 947.1 -0.2 69
2018-05-14 06:00:00 8.4 0 Calma 4 Este 0 947 -0.6 66
2018-05-14 05:00:00 8.7 0 Calma 3 Norte 0 947.2 -0.7 64
2018-05-14 04:00:00 9.9 0 Calma 4 Norte 0 947.3 -0.7 56
2018-05-14 03:00:00 11 2 Norte 9 Nordeste 0 947.6 -0.2 48
2018-05-14 02:00:00 11.4 3 Nordeste 9 Norte 0 947.9 0.1 46
2018-05-14 01:00:00 11.9 2 Nordeste 16 Nordeste 0 948 0.6 46
2018-05-11 20:00:00 23.2 9 Noroeste 26 Oeste 0 943.8 -0.5 40
2018-05-11 19:00:00 24.6 11 Oeste 30 Oeste 0 944 -0.7 36
2018-05-11 18:00:00 24.8 16 Noroeste 31 Oeste 0 944.2 -0.8 36
2018-05-11 17:00:00 25 15 Oeste 31 Noroeste 0 944.3 -1.4 36
2018-05-11 16:00:00 25.4 10 Noroeste 22 Noroeste 0 944.7 -- 36
2018-05-11 15:00:00 24.8 7 Oeste 26 Noroeste 0 945 -- 40
2018-05-11 14:00:00 -- -- -- -- -- -- 945.7 -0.5 --
2018-05-11 13:00:00 -- -- -- -- -- -- -- -- --
2018-05-11 12:00:00 -- -- -- -- -- -- -- -- --
2018-05-11 11:00:00 20.4 10 Noroeste 25 Oeste 0 946.2 0.9 56
2018-05-11 10:00:00 18.9 7 Oeste 15 Oeste 0 946.1 1.5 66
2018-05-11 09:00:00 16.2 4 Oeste 8 Noroeste 0 945.6 1.2 77
2018-05-11 08:00:00 13.9 2 Oeste 7 Sudoeste 0 945.3 0.8 86
2018-05-11 07:00:00 13.5 5 Sudoeste 10 Sudoeste 0 944.6 0.3 86
2018-05-11 06:00:00 14 3 Sudoeste 9 Oeste 0 944.4 0.1 83
2018-05-11 05:00:00 14.9 3 Oeste 12 Sudoeste 0 944.5 -0.1 80
2018-05-11 04:00:00 15.8 4 Oeste 15 Oeste 0 944.3 -0.1 76
2018-05-11 03:00:00 16.3 7 Sudoeste 17 Oeste 0 944.3 -0.3 74
2018-05-11 02:00:00 16.7 5 Oeste 18 Oeste 0 944.6 0.9 73
2018-05-11 01:00:00 17.7 11 Sudoeste 21 Sudoeste 0 944.4 1.3 69
2018-05-11 00:00:00 18.8 5 Oeste 15 Sudoeste 0 944.6 1.8 65
2018-05-10 23:00:00 19.5 7 Oeste 17 Sudoeste 0 943.7 1.6 62
2018-05-10 22:00:00 20.9 8 Oeste 19 Sudoeste 0 943.1 1.4 54
2018-05-10 21:00:00 22.4 8 Oeste 15 Sudoeste 0 942.8 0.9 49
2018-05-10 20:00:00 23.4 9 Noroeste 17 Noroeste 0 942.1 0.1 42
2018-05-10 19:00:00 24.6 7 Oeste 19 Oeste 0 941.7 -0.8 42
2018-05-10 18:00:00 25 5 Sudoeste 19 Noroeste 0 941.9 -1 43
2018-05-10 17:00:00 24.9 6 Sudoeste 16 Oeste 0 942 -1.1 45
2018-05-10 16:00:00 22.3 7 Noroeste 14 Norte 0 942.5 -0.6 54
2018-05-10 15:00:00 23.3 5 Sudoeste 17 Noroeste 0 942.9 -0.3 52
2018-05-10 14:00:00 22.6 5 Sudoeste 15 Noroeste 0 943.1 0 53
2018-05-10 13:00:00 21.2 7 Noroeste 16 Oeste 0 943.1 0 58
2018-05-10 12:00:00 19.4 9 Oeste 18 Sudoeste 0 943.2 0.3 64
2018-05-10 11:00:00 17.8 9 Oeste 21 Oeste 0 943.1 1.1 71
2018-05-10 10:00:00 15.5 8 Oeste 18 Noroeste 0 943.1 1.6 80
2018-05-10 09:00:00 15.3 8 Noroeste 19 Oeste 0 942.9 1.7 81
2018-05-10 08:00:00 14.1 7 Noroeste 14 Noroeste 0 942 1.1 86
2018-05-10 07:00:00 14.2 6 Noroeste 17 Oeste 0 941.5 0.7 87
2018-05-10 06:00:00 14.2 9 Noroeste 21 Oeste 0 941.2 0.3 89
2018-05-10 05:00:00 14.3 7 Oeste 20 Noroeste 0 940.9 -0.2 89
2018-05-10 04:00:00 14.8 9 Noroeste 20 Oeste 0 940.8 -0.3 88
2018-05-10 03:00:00 15.5 8 Oeste 19 Oeste 0 940.9 0 88
2018-05-10 02:00:00 15.9 5 Oeste 21 Oeste 0 941.1 0.4 85
2018-05-10 01:00:00 16.4 7 Oeste 19 Sudoeste 0 941.1 1.2 84
2018-05-10 00:00:00 17.1 9 Oeste 23 Oeste 0 940.9 1.7 80
2018-05-09 23:00:00 18.1 8 Oeste 26 Noroeste 0 940.7 2 72
2018-05-09 22:00:00 19.3 10 Oeste 21 Oeste 0 939.9 1.2 69
2018-05-09 21:00:00 20.8 8 Oeste 34 Oeste 0 939.2 0.7 61
2018-05-09 20:00:00 22.5 11 Oeste 29 Sudoeste 0 938.7 -0.1 52
2018-05-09 19:00:00 24.1 11 Oeste 31 Oeste 0 938.7 -0.4 48
2018-05-09 18:00:00 24.2 13 Oeste 30 Oeste 0 938.5 -1 50
2018-05-09 17:00:00 24.1 13 Oeste 32 Oeste 0 938.8 -1.1 53
2018-05-09 16:00:00 22.7 18 Oeste 33 Oeste 0 939.1 -1.2 58
2018-05-09 15:00:00 23.9 15 Sudoeste 32 Oeste 0 939.5 -1.1 57
2018-05-09 14:00:00 23.6 12 Oeste 26 Noroeste 0 939.9 -0.8 59
2018-05-09 13:00:00 22.5 10 Oeste 25 Oeste 0 940.3 -0.3 63
2018-05-09 12:00:00 21 8 Oeste 20 Oeste 0 940.6 0.4 65
2018-05-09 11:00:00 19.1 9 Oeste 21 Oeste 0 940.7 0.6 71
2018-05-09 10:00:00 18.2 10 Oeste 17 Oeste 0 940.6 0.9 74
2018-05-09 09:00:00 16 9 Sudoeste 15 Sudoeste 0 940.2 0.8 80
2018-05-09 08:00:00 13.6 4 Sudoeste 11 Sudoeste 0 940.1 0.5 91
2018-05-09 07:00:00 13.2 5 Sudoeste 11 Oeste 0 939.7 -0.1 91
2018-05-09 06:00:00 13.4 4 Sudoeste 11 Sudoeste 0 939.4 -0.9 90
2018-05-09 05:00:00 13.6 5 Sudoeste 9 Sudoeste 0 939.6 -1.3 90
2018-05-09 04:00:00 14.1 4 Sudoeste 11 Sur 0 939.8 -1.2 88
2018-05-09 03:00:00 14.7 4 Sudoeste 11 Noroeste 0 940.3 -0.3 84
2018-05-09 02:00:00 15.1 4 Noroeste 13 Noroeste 0 940.9 0.1 84
2018-05-09 01:00:00 15.2 3 Oeste 14 Oeste 0 941 0.7 85
2018-05-09 00:00:00 15.5 5 Oeste 19 Noroeste 0 940.6 0.4 85
2018-05-08 23:00:00 15.9 7 Noroeste 19 Oeste 0.2 940.8 1 86
2018-05-08 22:00:00 16.6 8 Oeste 22 Noroeste 1.2 940.3 1.6 89
2018-05-08 21:00:00 17.6 5 Noroeste 10 Noroeste 0.2 940.2 1.8 81
2018-05-08 20:00:00 18.7 8 Sudeste 35 Nordeste 1.6 939.8 1 77
2018-05-08 19:00:00 22.5 12 Oeste 24 Oeste 0.2 938.7 -0.8 59
2018-05-08 18:00:00 25.3 5 Noroeste 16 Oeste 0 938.4 -1.4 37
2018-05-08 17:00:00 23.9 5 Sudoeste 10 Sur 0 938.8 -1.6 49
2018-05-08 16:00:00 22.2 4 Noroeste 28 Noroeste 2 939.5 -1.7 71
2018-05-08 15:00:00 25.3 7 Oeste 22 Noroeste 0 939.8 -1.7 41
2018-05-08 14:00:00 24.5 6 Noroeste 16 Noroeste 0 940.4 -1.3 44
2018-05-08 13:00:00 23 4 Noroeste 12 Norte 0 941.2 -0.4 47
2018-05-08 12:00:00 20.7 3 Oeste 8 Este 0 941.5 -0.1 58
2018-05-08 11:00:00 17.9 2 Nordeste 6 Este 0 941.7 0.4 70
2018-05-08 10:00:00 15.9 2 Este 6 Sudeste 0 941.6 0.7 80
2018-05-08 09:00:00 14.2 3 Nordeste 7 Nordeste 0 941.6 0.8 90
2018-05-08 08:00:00 13.8 3 Nordeste 6 Sur 0 941.3 0.4 88
2018-05-08 07:00:00 13.9 3 Sudoeste 7 Oeste 0 940.9 -0.1 87
2018-05-08 06:00:00 14 4 Oeste 8 Sudoeste 0 940.8 -0.5 86
2018-05-08 05:00:00 13.9 2 Sudoeste 5 Noroeste 0 940.9 -1 89
2018-05-08 04:00:00 14.9 2 Noroeste 8 Oeste 0 941 -1.2 83
2018-05-08 03:00:00 15.4 4 Noroeste 9 Oeste 0 941.3 -0.7 81
2018-05-08 02:00:00 16.1 5 Noroeste 14 Oeste 0 941.9 0.1 78
2018-05-08 01:00:00 16.6 5 Oeste 17 Noroeste 0 942.2 1 76
2018-05-08 00:00:00 17.1 10 Oeste 17 Oeste 0 942 1.1 73
2018-05-07 23:00:00 17.8 10 Noroeste 24 Noroeste 1 941.8 1.1 71
2018-05-07 22:00:00 19.7 11 Noroeste 23 Oeste 0 941.2 0.6 59
2018-05-07 21:00:00 21 6 Noroeste 16 Oeste 0 940.9 0.2 48
2018-05-07 20:00:00 22.7 8 Norte 23 Norte 0 940.7 -0.2 40
2018-05-07 19:00:00 24 12 Noroeste 23 Noroeste 0 940.6 -1.1 36
2018-05-07 18:00:00 25.4 4 Norte 20 Nordeste 0 940.7 -1.8 30
2018-05-07 17:00:00 25.7 8 Nordeste 26 Nordeste 0 940.9 -2.2 31
2018-05-07 16:00:00 25.5 11 Nordeste 27 Nordeste 0 941.7 -1.9 32
2018-05-07 15:00:00 24.4 12 Nordeste 23 Este 0 942.5 -1.5 38
2018-05-07 14:00:00 23.6 8 Este 27 Este 0 943.1 -1 42
2018-05-07 13:00:00 23.2 8 Este 26 Sudeste 0 943.6 -0.4 41
2018-05-07 12:00:00 22 10 Este 19 Este 0 944 0.2 44
2018-05-07 11:00:00 19.6 12 Este 21 Este 0 944.1 0.4 57
2018-05-07 10:00:00 17.4 12 Este 19 Este 0 944 0.7 68
2018-05-07 09:00:00 14.8 7 Este 15 Nordeste 0 943.8 0.7 77
2018-05-07 08:00:00 11.6 3 Nordeste 8 Nordeste 0 943.7 0.5 91
2018-05-07 07:00:00 11.7 3 Nordeste 8 Nordeste 0 943.3 0 89
2018-05-07 06:00:00 12.3 5 Este 9 Nordeste 0 943.1 -0.3 86
2018-05-07 05:00:00 13.3 5 Nordeste 13 Nordeste 0 943.2 -0.6 82
2018-05-07 04:00:00 13.7 4 Nordeste 7 Nordeste 0 943.3 -0.2 80
2018-05-07 03:00:00 14 0 Calma 6 Norte 0 943.4 -0.1 79
2018-05-07 02:00:00 14.3 3 Norte 9 Nordeste 0 943.8 0.6 81
2018-05-07 01:00:00 15.2 4 Sudeste 10 Nordeste 0 943.5 0.7 76
2018-05-07 00:00:00 16.3 0 Calma 11 Noroeste 0 943.5 1.1 70
2018-05-06 23:00:00 17 8 Noroeste 18 Sudoeste 0 943.2 1.3 67
2018-05-06 22:00:00 18.3 12 Sudeste 21 Sur 0 942.8 1 60
2018-05-06 21:00:00 18.6 0 Calma 56 Este 0.4 942.4 0.6 67
2018-05-06 20:00:00 21.6 3 Este 13 Noroeste 0 941.9 -0.5 47
2018-05-06 19:00:00 20.7 5 Oeste 31 Sudeste 0.4 941.8 -1.3 53
2018-05-06 18:00:00 24 8 Este 21 Este 0 941.8 -1.8 38
2018-05-06 17:00:00 24.5 10 Sudeste 22 Sudeste 0 942.4 -1.4 37
2018-05-06 16:00:00 23.7 12 Sudeste 24 Sur 0 943.1 -1.4 44
2018-05-06 15:00:00 22.6 12 Sur 33 Sudeste 0 943.6 -1.3 49
2018-05-06 14:00:00 22.3 13 Este 27 Este 0 943.8 -1.3 44
2018-05-06 13:00:00 21.4 14 Este 28 Nordeste 0 944.5 -0.5 52
2018-05-06 12:00:00 19.6 13 Nordeste 27 Nordeste 0 944.9 -0.1 63
2018-05-06 11:00:00 18.5 11 Nordeste 24 Este 0 945.1 0.4 64
2018-05-06 10:00:00 16.7 11 Nordeste 22 Nordeste 0 945 0.6 77
2018-05-06 09:00:00 14 9 Nordeste 14 Nordeste 0 945 0.9 89
2018-05-06 08:00:00 11.9 5 Nordeste 10 Nordeste 0 944.7 0.4 96
2018-05-06 07:00:00 12.3 3 Norte 11 Norte 0 944.4 0.2 94
2018-05-06 06:00:00 13.1 7 Este 12 Este 0 944.1 -0.2 92
2018-05-06 05:00:00 13.8 6 Este 12 Este 0 944.3 -0.2 91
2018-05-06 04:00:00 14.1 7 Este 22 Este 0.2 944.2 -0.2 91
2018-05-06 03:00:00 14.5 15 Este 28 Este 0.2 944.3 0.6 86
2018-05-06 02:00:00 14.8 18 Este 32 Este 0 944.5 1.4 83
2018-05-06 01:00:00 16.8 16 Este 28 Nordeste 0 944.4 1.8 61
2018-05-06 00:00:00 18.7 10 Este 16 Sudeste 0 943.7 1.5 53
2018-05-05 23:00:00 20.1 3 Norte 16 Noroeste 0 943.1 1.1 47
2018-05-05 22:00:00 20.7 5 Este 15 Norte 0 942.6 0.7 43
2018-05-05 21:00:00 22.4 6 Noroeste 12 Noroeste 0 942.2 0.3 35
2018-05-05 20:00:00 23 9 Noroeste 15 Noroeste 0 942 -0.1 34
2018-05-05 19:00:00 23.8 9 Noroeste 20 Noroeste 0 941.9 -0.6 32
2018-05-05 18:00:00 25.1 7 Oeste 21 Noroeste 0 941.9 -0.9 32
2018-05-05 17:00:00 25.3 8 Noroeste 21 Oeste 0 942.1 -1.1 30
2018-05-05 16:00:00 25 5 Norte 17 Noroeste 0 942.5 -1.1 30
2018-05-05 15:00:00 23.8 4 Noroeste 21 Norte 0 942.8 -0.9 31
2018-05-05 14:00:00 24 5 Sudeste 14 Sur 0 943.2 -0.5 32
2018-05-05 13:00:00 22.8 7 Este 18 Sudeste 0 943.6 -0.1 37
2018-05-05 12:00:00 21.3 6 Sudeste 12 Nordeste 0 943.7 0.3 39
2018-05-05 11:00:00 19.2 2 Este 10 Sudeste 0 943.7 0.6 44
2018-05-05 10:00:00 17.2 7 Este 13 Sudeste 0 943.7 1 52
2018-05-05 09:00:00 13.4 0 Calma 5 Este 0 943.4 0.9 63
2018-05-05 08:00:00 11.1 0 Calma 6 Sudeste 0 943.1 0.8 74
2018-05-05 07:00:00 10.8 0 Calma 8 Norte 0 942.7 0.5 73
2018-05-05 06:00:00 9.6 0 Calma 9 Nordeste 0 942.5 0 75
2018-05-05 05:00:00 10.9 0 Calma 7 Oeste 0 942.3 -0.3 69
2018-05-05 04:00:00 10.6 4 Oeste 12 Nordeste 0 942.2 -0.2 70
2018-05-05 03:00:00 11.3 4 Sudoeste 7 Oeste 0 942.5 0.1 65
2018-05-05 02:00:00 11.9 0 Calma 5 Noroeste 0 942.6 0.4 63
2018-05-05 01:00:00 13.6 5 Noroeste 10 Noroeste 0 942.4 0.7 52
2018-05-05 00:00:00 14.3 4 Noroeste 9 Noroeste 0 942.4 1.2 50
2018-05-04 23:00:00 15.5 4 Noroeste 9 Oeste 0 942.2 1.6 45
2018-05-04 22:00:00 16.4 0 Calma 6 Sudeste 0 941.7 1.1 40
2018-05-04 21:00:00 18.2 3 Sudeste 12 Nordeste 0 941.2 0.7 32
2018-05-04 20:00:00 19.5 5 Este 17 Este 0 940.6 0.2 29
2018-05-04 19:00:00 20.8 9 Este 21 Nordeste 0 940.6 -0.2 27
2018-05-04 18:00:00 21 8 Nordeste 23 Nordeste 0 940.5 -0.5 30
2018-05-04 17:00:00 21 6 Este 21 Nordeste 0 940.4 -0.9 29
2018-05-04 16:00:00 20.1 13 Este 25 Este 0 940.8 -0.9 33
2018-05-04 15:00:00 19.5 9 Este 23 Nordeste 0 941 -0.6 37
2018-05-04 14:00:00 17.7 9 Nordeste 22 Nordeste 0 941.3 -0.3 40
2018-05-04 13:00:00 16.2 6 Nordeste 18 Nordeste 0 941.7 0.2 43
2018-05-04 12:00:00 14.8 7 Nordeste 19 Norte 0 941.6 0.1 45
2018-05-04 11:00:00 13.4 9 Nordeste 26 Nordeste 0 941.6 0.3 50
2018-05-04 10:00:00 11.3 9 Nordeste 24 Norte 0 941.5 0.5 57
2018-05-04 09:00:00 9.5 10 Nordeste 19 Nordeste 0 941.5 0.4 62
2018-05-04 08:00:00 6.1 4 Nordeste 16 Norte 0 941.3 0 73
2018-05-04 07:00:00 6.5 6 Nordeste 18 Nordeste 0 941 -0.4 71
2018-05-04 06:00:00 7.7 9 Norte 21 Norte 0 941.1 -0.2 67
2018-05-04 05:00:00 8.5 11 Norte 23 Norte 0 941.3 0 64
2018-05-04 04:00:00 9.1 8 Norte 17 Norte 0 941.4 -0.1 64
2018-05-04 03:00:00 8.9 6 Norte 20 Norte 0 941.3 -0.3 64
2018-05-04 02:00:00 9.5 5 Norte 13 Nordeste 0 941.3 -0.1 62
2018-05-04 01:00:00 10.7 7 Norte 19 Norte 0 941.5 0.8 59
2018-05-04 00:00:00 12.3 6 Norte 16 Norte 0 941.6 1.4 52
2018-05-03 23:00:00 13.9 6 Norte 13 Norte 0 941.4 1.4 52
2018-05-03 22:00:00 14.9 6 Noroeste 15 Noroeste 0 940.7 0.8 52
2018-05-03 21:00:00 16.1 9 Noroeste 16 Norte 0 940.2 -0.1 55
2018-05-03 20:00:00 17.1 4 Oeste 10 Oeste 0 940 -0.3 60
2018-05-03 19:00:00 17.7 3 Noroeste 10 Sudeste 0 939.9 -0.8 56
2018-05-03 18:00:00 16.6 2 Este 36 Noroeste 1 940.3 -0.7 70
2018-05-03 17:00:00 19.1 4 Norte 17 Noroeste 0 940.3 -1.5 42
2018-05-03 16:00:00 20.2 9 Noroeste 20 Noroeste 0 940.7 -1.7 43
2018-05-03 15:00:00 20.5 5 Noroeste 16 Oeste 0 941 -1.7 41
2018-05-03 14:00:00 20.1 9 Noroeste 22 Oeste 0 941.8 -1.2 42
2018-05-03 13:00:00 19.9 7 Noroeste 23 Noroeste 0 942.4 -0.6 42
2018-05-03 12:00:00 18 9 Noroeste 19 Norte 0 942.7 -0.3 52
2018-05-03 11:00:00 16.6 7 Noroeste 14 Norte 0 943 0.1 57
2018-05-03 10:00:00 14.1 5 Oeste 9 Oeste 0 943 0.2 62
2018-05-03 09:00:00 11.3 5 Oeste 12 Oeste 0 943 0.1 70
2018-05-03 08:00:00 8.7 3 Oeste 11 Sudoeste 0 942.9 -0.2 79
2018-05-03 07:00:00 8.7 4 Oeste 11 Oeste 0 942.8 -0.8 78
2018-05-03 06:00:00 8.7 4 Oeste 10 Oeste 0 942.9 -0.8 76
2018-05-03 05:00:00 9 4 Oeste 9 Oeste 0 943.1 -1 72
2018-05-03 04:00:00 9.7 4 Noroeste 11 Oeste 0 943.6 -0.7 68
2018-05-03 03:00:00 10.3 4 Oeste 13 Sudoeste 0 943.7 -0.7 63
2018-05-03 02:00:00 10.5 8 Oeste 14 Sudoeste 0 944.1 0 59
2018-05-03 01:00:00 10.9 5 Oeste 11 Oeste 0 944.3 0.9 54
2018-05-03 00:00:00 11.3 6 Oeste 16 Oeste 0 944.4 1.3 50
2018-05-02 23:00:00 11.8 7 Oeste 15 Sudoeste 0 944.1 1.1 44
2018-05-02 22:00:00 12.8 5 Oeste 14 Sudoeste 0 943.4 0.4 38
2018-05-02 21:00:00 14 5 Oeste 18 Sudoeste 0 943.1 0.2 35
2018-05-02 20:00:00 15.4 9 Noroeste 21 Noroeste 0 943 0.3 34
2018-05-02 19:00:00 16.1 10 Noroeste 29 Oeste 0 943 -0.2 33
2018-05-02 18:00:00 17.6 11 Oeste 26 Oeste 0 942.9 -0.5 33
2018-05-02 17:00:00 16.8 9 Noroeste 27 Oeste 0 942.7 -1.1 38
2018-05-02 16:00:00 16.7 9 Oeste 30 Oeste 0 943.2 -0.7 39
2018-05-02 15:00:00 16.1 15 Noroeste 29 Noroeste 0 943.4 -0.6 41
2018-05-02 14:00:00 16.5 14 Oeste 29 Oeste 0 943.8 -0.2 41
2018-05-02 13:00:00 16.3 12 Oeste 31 Oeste 0 943.9 -0.1 39
2018-05-02 12:00:00 15.1 11 Noroeste 21 Noroeste 0 944 0.3 49
2018-05-02 11:00:00 13.8 8 Oeste 17 Sudoeste 0 944 0.7 58
2018-05-02 10:00:00 11.6 5 Sudoeste 14 Oeste 0 944 1 65
2018-05-02 09:00:00 8.8 6 Oeste 14 Oeste 0 943.7 0.6 73
2018-05-02 08:00:00 6.1 8 Oeste 15 Oeste 0 943.3 0.1 84
2018-05-02 07:00:00 5.8 5 Sudoeste 9 Oeste 0 943 -0.1 85
2018-05-02 06:00:00 5.6 6 Sudoeste 11 Oeste 0 943.1 -0.1 85
2018-05-02 05:00:00 5.5 3 Sudoeste 9 Sudoeste 0 943.2 -0.1 85
2018-05-02 04:00:00 6.3 6 Oeste 17 Oeste 0 943.1 -0.1 82
2018-05-02 03:00:00 6.7 4 Oeste 12 Sudoeste 0 943.2 0 79
2018-05-02 02:00:00 6.8 3 Oeste 13 Oeste 0 943.3 0.2 79
2018-05-02 01:00:00 7.2 5 Oeste 10 Sudoeste 0 943.2 0.8 80
2018-05-02 00:00:00 7.8 5 Oeste 12 Oeste 0 943.2 1.1 75
2018-05-01 23:00:00 8.4 4 Oeste 14 Noroeste 0 943.1 1.2 73
2018-05-01 22:00:00 9.1 5 Oeste 15 Oeste 0 942.4 0.5 71
2018-05-01 21:00:00 10.1 6 Oeste 17 Sudoeste 0 942.1 0.2 67
2018-05-01 20:00:00 10.8 9 Oeste 21 Noroeste 0 941.9 0.3 63
2018-05-01 19:00:00 11.3 9 Noroeste 21 Oeste 0 941.9 -0.5 60
2018-05-01 18:00:00 12.5 12 Noroeste 21 Noroeste 0 941.9 -0.6 57
2018-05-01 17:00:00 14.5 6 Sudoeste 17 Oeste 0 941.6 -1.5 50
2018-05-01 16:00:00 13.3 8 Oeste 15 Oeste 0 942.4 -1.1 59
2018-05-01 15:00:00 12.2 6 Sudoeste 15 Noroeste 0 942.5 -1 61
2018-05-01 14:00:00 9 5 Oeste 20 Noroeste 0.2 943.1 -0.1 77
2018-05-01 13:00:00 6.4 13 Noroeste 23 Noroeste 0.8 943.5 1 91
2018-05-01 12:00:00 6.4 13 Noroeste 28 Noroeste 1.2 943.5 1.3 94
2018-05-01 11:00:00 7.6 14 Noroeste 26 Noroeste 0 943.2 1.2 85
2018-05-01 10:00:00 10.4 4 Este 10 Este 0 942.5 0.7 69
2018-05-01 09:00:00 6.8 4 Sudeste 7 Este 0 942.2 0.4 83
2018-05-01 08:00:00 3 3 Este 5 Sudeste 0 942 -0.1 97
2018-05-01 07:00:00 3 0 Calma 6 Norte 0 941.8 -0.4 95
2018-05-01 06:00:00 3.4 0 Calma 6 Sudeste 0 941.8 -0.7 94
2018-05-01 05:00:00 3.9 2 Este 5 Noroeste 0 942.1 -0.8 92
2018-05-01 04:00:00 4.5 3 Norte 8 Norte 0 942.2 -0.9 90
2018-05-01 03:00:00 4.4 2 Norte 9 Norte 0 942.5 -0.5 90
2018-05-01 02:00:00 5.2 0 Calma 3 Nordeste 0 942.9 0.1 90
2018-05-01 01:00:00 6 2 Este 3 Este 0 943.1 0.7 86
2018-05-01 00:00:00 7 0 Calma 3 Oeste 0 943 1.2 79
2018-04-30 23:00:00 8.6 2 Sudoeste 18 Oeste 0 942.8 1.5 69
2018-04-30 22:00:00 9.5 9 Oeste 23 Oeste 0 942.4 1.1 65
2018-04-30 21:00:00 10.7 10 Noroeste 15 Noroeste 0 941.8 0.3 62
2018-04-30 20:00:00 11.4 8 Oeste 21 Sudoeste 0 941.3 -0.2 63
2018-04-30 19:00:00 11.3 7 Oeste 21 Noroeste 0 941.3 -0.9 62
2018-04-30 18:00:00 9 5 Norte 36 Noroeste 1.4 941.5 -1 86
2018-04-30 17:00:00 12.8 11 Noroeste 27 Sudoeste 0 941.5 -1.2 60
2018-04-30 16:00:00 11.9 15 Oeste 31 Oeste 0 942.2 -1.2 62
2018-04-30 15:00:00 10.6 8 Oeste 28 Sudoeste 0.2 942.5 -0.9 73
2018-04-30 14:00:00 11.6 5 Sudoeste 20 Noroeste 0 942.7 -0.6 57
2018-04-30 13:00:00 11.3 8 Sudoeste 21 Oeste 0 943.4 0.3 57
2018-04-30 12:00:00 10.3 11 Oeste 20 Oeste 0 943.4 0.6 59
2018-04-30 11:00:00 9.5 10 Oeste 20 Oeste 0 943.3 0.6 68
2018-04-30 10:00:00 9.3 6 Sudoeste 15 Sudoeste 0 943.1 0.6 70
2018-04-30 09:00:00 7.7 7 Oeste 13 Oeste 0 942.8 0.3 75
2018-04-30 08:00:00 5.5 6 Sudoeste 12 Oeste 0 942.7 -0.1 88
2018-04-30 07:00:00 5.8 5 Sudoeste 10 Sudoeste 0 942.5 -0.2 88
2018-04-30 06:00:00 6.1 4 Sudoeste 9 Sur 0 942.5 -0.4 87
2018-04-30 05:00:00 6.1 4 Sudoeste 9 Sudoeste 0 942.8 -0.5 87
2018-04-30 04:00:00 5.8 4 Sur 11 Sudoeste 0 942.7 -0.8 87
2018-04-30 03:00:00 6.5 6 Oeste 14 Oeste 0 942.9 -0.5 86
2018-04-30 02:00:00 7.2 6 Oeste 12 Sudoeste 0 943.3 -0.1 85
2018-04-30 01:00:00 7.7 5 Sudoeste 15 Sudoeste 0 943.5 0.9 86
2018-04-30 00:00:00 7.8 5 Sudoeste 22 Oeste 0 943.4 1.3 86
2018-04-29 23:00:00 8.3 10 Oeste 27 Oeste 0 943.4 2 84
2018-04-29 22:00:00 8.2 12 Sudoeste 25 Oeste 0 942.6 1.6 78
2018-04-29 21:00:00 8.9 14 Oeste 32 Oeste 0 942.1 1.3 73
2018-04-29 20:00:00 9.1 14 Oeste 32 Oeste 1.2 941.4 1 84
2018-04-29 19:00:00 11.1 13 Oeste 39 Sudoeste 0 941 0.3 72
2018-04-29 18:00:00 12.1 14 Oeste 52 Oeste 0 940.8 -0.3 64
2018-04-29 17:00:00 13.5 15 Sudoeste 46 Sudoeste 0 940.4 -0.6 54
2018-04-29 16:00:00 12.7 16 Oeste 42 Sudoeste 0 940.7 0 65
2018-04-29 15:00:00 11.3 22 Sudoeste 45 Oeste 0.2 941.1 0.5 67
2018-04-29 14:00:00 10.9 17 Oeste 50 Oeste 0 941 1.4 72
2018-04-29 13:00:00 10.4 17 Oeste 44 Sudoeste 0.2 940.7 1.8 69
2018-04-29 12:00:00 8.7 16 Oeste 41 Sudoeste 0 940.6 2.5 78
2018-04-29 11:00:00 8.5 14 Oeste 50 Oeste 0 939.6 2.2 80
2018-04-29 10:00:00 7 16 Oeste 43 Sudoeste 0.4 938.9 2.1 88
2018-04-29 09:00:00 7.3 13 Sudoeste 36 Oeste 0 938.1 1.8 86
2018-04-29 08:00:00 6.6 15 Sudoeste 34 Oeste 0 937.4 0.9 89
2018-04-29 07:00:00 6.5 17 Sudoeste 36 Sudoeste 0 936.8 0.8 89
2018-04-29 06:00:00 6.4 11 Sudoeste 29 Oeste 0.2 936.3 -0.3 93
2018-04-29 05:00:00 6.5 12 Oeste 39 Oeste 0.6 936.5 -0.6 92
2018-04-29 04:00:00 8.2 12 Sudoeste 28 Sudoeste 0.2 936 -0.8 87
2018-04-29 03:00:00 8.4 9 Sudoeste 26 Sudoeste 0.6 936.6 0 89
2018-04-29 02:00:00 9 13 Oeste 32 Sudoeste 0 937.1 0.1 80
2018-04-29 01:00:00 10.3 8 Sur 15 Sudoeste 0 936.8 0 60
2018-04-29 00:00:00 10.9 5 Sudoeste 17 Oeste 0 936.6 0.1 53
2018-04-28 23:00:00 11.5 8 Oeste 16 Noroeste 0 937 0.6 53
2018-04-28 22:00:00 12.1 10 Noroeste 23 Oeste 0 936.8 0 51
2018-04-28 21:00:00 13.4 13 Noroeste 27 Oeste 0 936.5 -0.6 48
2018-04-28 20:00:00 14.9 13 Noroeste 29 Noroeste 0 936.4 -1.1 46
2018-04-28 19:00:00 17.2 10 Noroeste 31 Noroeste 0 936.8 -1.1 41
2018-04-28 18:00:00 17.9 14 Oeste 38 Oeste 0 937.1 -1.4 37
2018-04-28 17:00:00 18.4 17 Oeste 37 Oeste 0 937.5 -1.4 36
2018-04-28 16:00:00 18.4 17 Oeste 37 Oeste 0 937.9 -1.5 40
2018-04-28 15:00:00 18.2 17 Sudoeste 35 Oeste 0 938.5 -1 49
2018-04-28 14:00:00 17.2 14 Oeste 32 Oeste 0 938.9 -0.7 57
2018-04-28 13:00:00 15.8 14 Oeste 30 Oeste 0 939.4 -0.2 64
2018-04-28 12:00:00 15.9 12 Sudoeste 26 Sudoeste 0 939.5 0 66
2018-04-28 11:00:00 14.2 10 Sudoeste 24 Sudoeste 0 939.6 0 73
2018-04-28 10:00:00 13.7 9 Oeste 18 Oeste 0 939.6 0.1 78
2018-04-28 09:00:00 12.2 6 Sudoeste 17 Sudoeste 0 939.5 0.1 87
2018-04-28 08:00:00 11 5 Sudoeste 13 Sudoeste 0 939.6 -0.2 89
2018-04-28 07:00:00 11 5 Oeste 14 Oeste 0 939.5 -0.3 88
2018-04-28 06:00:00 11.8 7 Sudoeste 15 Sudoeste 0 939.4 -1 83
2018-04-28 05:00:00 12.4 5 Sudoeste 10 Oeste 0 939.8 -1 79
2018-04-28 04:00:00 12.9 6 Sudoeste 15 Sudoeste 0 939.8 -1.3 76
2018-04-28 03:00:00 13.3 6 Sudoeste 12 Sudoeste 0 940.4 -0.8 71
2018-04-28 02:00:00 14.2 7 Sudoeste 13 Sudoeste 0 940.8 -0.6 61
2018-04-28 01:00:00 15 7 Sudoeste 12 Oeste 0 941.1 -0.2 53
2018-04-28 00:00:00 15.6 5 Oeste 12 Noroeste 0 941.2 0.4 52